Time;durP1;ratioP1;P1;durP2;ratioP2;P2;SDS_P1;SDS_P2;PMS_P1;PMS_P2;Temp;Humidity;BMP_temperature;BMP_pressure;BME280_temperature;BME280_humidity;BME280_pressure;Samples;Min_cycle;Max_cycle;Signal;HPM_P1;HPM_P2
2022/05/06 00:01:37;;;;;;;6.20;4.72;;;;;;;;;;4978835;28;20042;-82
2022/05/06 00:04:03;;;;;;;8.63;4.93;;;;;;;;;;4978641;28;20035;-82
2022/05/06 00:06:29;;;;;;;7.75;5.50;;;;;;;;;;4978221;28;20030;-82
2022/05/06 00:08:55;;;;;;;5.57;4.90;;;;;;;;;;4977537;28;20118;-82
2022/05/06 00:11:20;;;;;;;5.50;4.75;;;;;;;;;;4977462;28;20050;-82
2022/05/06 00:13:46;;;;;;;7.50;4.95;;;;;;;;;;4961673;28;20034;-82
2022/05/06 00:16:12;;;;;;;7.07;4.68;;;;;;;;;;4977971;28;20030;-82
2022/05/06 00:18:38;;;;;;;8.77;5.10;;;;;;;;;;4977581;28;20034;-82
2022/05/06 00:21:03;;;;;;;7.00;5.30;;;;;;;;;;4978694;28;20475;-81
2022/05/06 00:23:28;;;;;;;10.20;5.45;;;;;;;;;;4977144;28;20463;-81
2022/05/06 00:25:55;;;;;;;6.55;4.93;;;;;;;;;;4960745;28;20046;-82
2022/05/06 00:28:21;;;;;;;7.25;4.85;;;;;;;;;;4961241;28;20039;-82
2022/05/06 00:30:47;;;;;;;8.05;5.72;;;;;;;;;;4945186;28;20073;-81
2022/05/06 00:33:13;;;;;;;8.73;6.07;;;;;;;;;;4960443;28;20039;-82
2022/05/06 00:35:41;;;;;;;7.28;5.80;;;;;;;;;;4976358;28;20042;-83
2022/05/06 00:38:06;;;;;;;10.05;6.30;;;;;;;;;;4977422;28;20041;-81
2022/05/06 00:40:32;;;;;;;9.75;6.68;;;;;;;;;;4944844;28;20488;-81
2022/05/06 00:42:57;;;;;;;12.35;6.80;;;;;;;;;;4960426;28;20042;-81
2022/05/06 00:45:23;;;;;;;10.40;6.95;;;;;;;;;;4976305;28;20082;-81
2022/05/06 00:47:49;;;;;;;9.82;6.70;;;;;;;;;;4944911;28;20035;-82
2022/05/06 00:50:15;;;;;;;9.30;7.55;;;;;;;;;;4976886;28;20089;-81
2022/05/06 00:52:41;;;;;;;9.00;6.80;;;;;;;;;;4976561;28;20049;-81
2022/05/06 00:55:07;;;;;;;8.90;7.05;;;;;;;;;;4959776;28;20035;-81
2022/05/06 00:57:33;;;;;;;9.93;8.02;;;;;;;;;;4944563;28;20042;-81
2022/05/06 01:00:18;;;;;;;10.63;8.45;;;;;;;;;;4976690;28;20483;-81
2022/05/06 01:02:44;;;;;;;9.32;7.97;;;;;;;;;;4960537;28;20038;-81
2022/05/06 01:05:12;;;;;;;9.43;7.68;;;;;;;;;;4959610;28;20030;-81
2022/05/06 01:07:37;;;;;;;11.52;7.95;;;;;;;;;;4976587;28;20026;-81
2022/05/06 01:10:03;;;;;;;11.07;8.45;;;;;;;;;;4944340;28;20045;-81
2022/05/06 01:12:30;;;;;;;11.88;8.50;;;;;;;;;;4944417;28;20443;-81
2022/05/06 01:14:57;;;;;;;11.63;8.15;;;;;;;;;;4959493;28;20487;-81
2022/05/06 01:17:32;;;;;;;11.80;8.32;;;;;;;;;;4960345;28;20039;-81
2022/05/06 01:19:57;;;;;;;11.88;9.35;;;;;;;;;;4943753;28;20129;-81
2022/05/06 01:22:23;;;;;;;12.30;8.70;;;;;;;;;;4928431;28;20050;-81
2022/05/06 01:24:49;;;;;;;11.48;8.82;;;;;;;;;;4975638;28;20031;-81
2022/05/06 01:27:15;;;;;;;9.95;8.15;;;;;;;;;;4960004;28;20046;-81
2022/05/06 01:29:40;;;;;;;10.73;8.60;;;;;;;;;;4976185;28;20030;-81
2022/05/06 01:32:06;;;;;;;10.90;8.65;;;;;;;;;;4976133;28;20039;-81
2022/05/06 01:34:34;;;;;;;12.23;9.05;;;;;;;;;;4959338;28;20098;-81
2022/05/06 01:37:01;;;;;;;11.25;8.45;;;;;;;;;;4959489;28;20572;-80
2022/05/06 01:39:34;;;;;;;11.70;8.40;;;;;;;;;;4975539;28;20078;-81
2022/05/06 01:42:08;;;;;;;11.27;8.52;;;;;;;;;;4975568;28;20070;-81
2022/05/06 01:44:40;;;;;;;10.45;7.13;;;;;;;;;;4960067;28;20034;-81
2022/05/06 01:47:16;;;;;;;9.52;7.47;;;;;;;;;;4975336;28;20045;-81
2022/05/06 01:49:42;;;;;;;10.07;7.10;;;;;;;;;;4975907;28;20035;-81
2022/05/06 01:52:08;;;;;;;10.82;8.18;;;;;;;;;;4943367;28;20138;-81
2022/05/06 01:54:35;;;;;;;11.05;7.70;;;;;;;;;;4942725;28;20066;-81
2022/05/06 01:57:01;;;;;;;9.73;7.63;;;;;;;;;;4959383;28;20074;-82
2022/05/06 01:59:27;;;;;;;8.98;7.60;;;;;;;;;;4959338;28;20038;-81
2022/05/06 02:02:04;;;;;;;8.38;6.75;;;;;;;;;;4945109;28;20424;-82
2022/05/06 02:07:16;;;;;;;9.27;6.97;;;;;;;;;;4945728;28;20124;-81
2022/05/06 02:09:43;;;;;;;10.77;7.05;;;;;;;;;;4958546;28;20034;-81
2022/05/06 02:12:11;;;;;;;9.13;6.57;;;;;;;;;;4958707;28;20058;-81
2022/05/06 02:14:55;;;;;;;9.23;7.30;;;;;;;;;;4958697;28;20055;-81
2022/05/06 02:17:55;;;;;;;8.57;6.60;;;;;;;;;;4917114;29;20123;-81
2022/05/06 02:20:32;;;;;;;8.18;6.72;;;;;;;;;;4967326;28;20142;-81
2022/05/06 02:23:16;;;;;;;9.43;6.28;;;;;;;;;;4976398;28;20049;-81
2022/05/06 02:26:01;;;;;;;8.63;6.55;;;;;;;;;;4961073;28;20432;-81
2022/05/06 02:28:39;;;;;;;8.38;6.60;;;;;;;;;;4958848;28;20038;-81
2022/05/06 02:33:52;;;;;;;7.80;6.63;;;;;;;;;;4958323;28;20038;-80
2022/05/06 02:36:38;;;;;;;7.53;6.47;;;;;;;;;;4975052;28;20113;-82
2022/05/06 02:39:03;;;;;;;11.23;6.93;;;;;;;;;;4958897;28;20395;-82
2022/05/06 02:41:32;;;;;;;8.93;5.63;;;;;;;;;;4959112;28;20030;-81
2022/05/06 02:43:58;;;;;;;9.23;6.53;;;;;;;;;;4958204;28;20088;-81
2022/05/06 02:46:27;;;;;;;7.13;5.70;;;;;;;;;;4975841;28;20046;-80
2022/05/06 02:48:54;;;;;;;6.63;5.50;;;;;;;;;;4958657;28;20035;-80
2022/05/06 02:51:21;;;;;;;7.50;5.70;;;;;;;;;;4958411;28;20041;-80
2022/05/06 02:53:47;;;;;;;7.18;5.72;;;;;;;;;;4958234;28;20046;-81
2022/05/06 02:56:15;;;;;;;7.20;5.45;;;;;;;;;;4957930;28;20157;-80
2022/05/06 02:58:54;;;;;;;6.75;5.20;;;;;;;;;;4943900;28;20035;-80
2022/05/06 03:01:22;;;;;;;9.18;5.50;;;;;;;;;;4958218;28;20118;-80
2022/05/06 03:03:51;;;;;;;6.53;5.15;;;;;;;;;;4958076;28;20078;-80
2022/05/06 03:06:19;;;;;;;6.18;4.85;;;;;;;;;;4957607;28;20113;-80
2022/05/06 03:08:45;;;;;;;6.88;4.93;;;;;;;;;;4958350;28;20034;-80
2022/05/06 03:11:13;;;;;;;7.03;5.30;;;;;;;;;;4957721;28;20038;-81
2022/05/06 03:13:46;;;;;;;8.73;5.43;;;;;;;;;;4943337;28;20117;-80
2022/05/06 03:16:15;;;;;;;8.43;5.60;;;;;;;;;;4957112;28;20030;-81
2022/05/06 03:18:41;;;;;;;7.88;5.47;;;;;;;;;;4958331;28;20384;-83
2022/05/06 03:21:06;;;;;;;6.53;5.35;;;;;;;;;;4974160;28;20109;-83
2022/05/06 03:23:32;;;;;;;10.00;5.82;;;;;;;;;;4960936;28;20070;-81
2022/05/06 03:25:58;;;;;;;7.22;5.15;;;;;;;;;;4961213;28;20042;-80
2022/05/06 03:28:23;;;;;;;6.60;5.50;;;;;;;;;;4962278;28;20030;-83
2022/05/06 03:30:49;;;;;;;8.25;5.50;;;;;;;;;;4961576;28;20023;-83
2022/05/06 03:33:45;;;;;;;6.18;5.15;;;;;;;;;;4961697;28;20121;-82
2022/05/06 03:36:24;;;;;;;7.07;4.90;;;;;;;;;;4961650;28;20038;-82
2022/05/06 03:38:55;;;;;;;6.95;5.05;;;;;;;;;;4978081;28;20030;-82
2022/05/06 03:41:25;;;;;;;6.88;5.25;;;;;;;;;;4961149;28;20034;-82
2022/05/06 03:43:51;;;;;;;6.97;5.25;;;;;;;;;;4977031;28;20034;-82
2022/05/06 03:46:20;;;;;;;7.43;4.97;;;;;;;;;;4961231;28;20035;-82
2022/05/06 03:48:45;;;;;;;7.93;5.40;;;;;;;;;;4930271;28;20034;-83
2022/05/06 03:51:21;;;;;;;9.07;5.10;;;;;;;;;;4961609;28;20388;-83
2022/05/06 03:53:52;;;;;;;5.90;4.53;;;;;;;;;;4961678;28;20027;-82
2022/05/06 03:56:18;;;;;;;9.18;5.15;;;;;;;;;;4961211;28;20038;-82
2022/05/06 03:58:45;;;;;;;7.05;5.00;;;;;;;;;;4961536;28;20034;-83
2022/05/06 04:01:13;;;;;;;9.10;5.10;;;;;;;;;;4961478;28;20022;-82
2022/05/06 04:03:42;;;;;;;6.32;4.72;;;;;;;;;;4976889;28;20074;-82
2022/05/06 04:06:07;;;;;;;6.28;4.55;;;;;;;;;;4960680;28;20081;-82
2022/05/06 04:08:34;;;;;;;6.72;4.35;;;;;;;;;;4961523;28;20062;-83
2022/05/06 04:11:01;;;;;;;5.53;4.13;;;;;;;;;;4961675;28;20045;-82
2022/05/06 04:13:27;;;;;;;6.07;4.38;;;;;;;;;;4961072;28;20031;-82
2022/05/06 04:15:53;;;;;;;6.72;4.90;;;;;;;;;;4960946;28;20027;-82
2022/05/06 04:18:19;;;;;;;6.78;5.40;;;;;;;;;;4961833;28;20070;-82
2022/05/06 04:23:34;;;;;;;5.05;3.92;;;;;;;;;;4947519;28;20031;-82
2022/05/06 04:26:08;;;;;;;5.35;4.10;;;;;;;;;;4976570;28;20042;-82
2022/05/06 04:28:38;;;;;;;5.30;4.25;;;;;;;;;;4961502;28;20038;-82
2022/05/06 04:31:05;;;;;;;6.47;3.55;;;;;;;;;;4960994;28;20041;-83
2022/05/06 04:33:39;;;;;;;5.32;3.90;;;;;;;;;;4946057;28;20031;-82
2022/05/06 04:36:07;;;;;;;5.60;4.30;;;;;;;;;;4960783;28;20061;-82
2022/05/06 04:38:34;;;;;;;6.07;3.80;;;;;;;;;;4945727;28;20142;-82
2022/05/06 04:41:02;;;;;;;5.20;3.60;;;;;;;;;;4960729;28;20026;-82
2022/05/06 04:43:32;;;;;;;4.32;3.10;;;;;;;;;;4947791;28;20066;-83
2022/05/06 04:45:58;;;;;;;5.40;3.83;;;;;;;;;;4963320;28;20033;-83
2022/05/06 04:48:26;;;;;;;6.20;3.17;;;;;;;;;;4963332;28;20035;-83
2022/05/06 04:50:52;;;;;;;4.90;3.53;;;;;;;;;;4962953;28;20035;-83
2022/05/06 04:53:19;;;;;;;5.03;3.38;;;;;;;;;;4962450;28;20039;-83
2022/05/06 04:55:48;;;;;;;5.13;3.00;;;;;;;;;;4946947;28;20037;-83
2022/05/06 04:58:16;;;;;;;4.65;3.40;;;;;;;;;;4932261;28;20041;-83
2022/05/06 05:00:43;;;;;;;4.43;2.90;;;;;;;;;;4947099;28;20034;-83
2022/05/06 05:03:08;;;;;;;5.25;2.95;;;;;;;;;;4963679;28;20162;-83
2022/05/06 05:05:34;;;;;;;4.00;2.95;;;;;;;;;;4962158;28;20062;-83
2022/05/06 05:08:02;;;;;;;3.92;2.92;;;;;;;;;;4980239;28;20030;-83
2022/05/06 05:10:28;;;;;;;6.22;2.97;;;;;;;;;;4945211;28;20038;-82
2022/05/06 05:12:54;;;;;;;3.85;2.80;;;;;;;;;;4961779;28;20042;-83
2022/05/06 05:15:23;;;;;;;4.32;3.15;;;;;;;;;;4961313;28;20034;-83
2022/05/06 05:17:49;;;;;;;4.07;2.80;;;;;;;;;;4962887;28;20054;-83
2022/05/06 05:20:16;;;;;;;4.45;2.80;;;;;;;;;;4963212;28;20030;-83
2022/05/06 05:22:43;;;;;;;4.25;2.90;;;;;;;;;;4947125;28;20033;-83
2022/05/06 05:25:11;;;;;;;3.78;2.80;;;;;;;;;;4978280;28;20042;-83
2022/05/06 05:27:38;;;;;;;3.90;2.80;;;;;;;;;;4963421;28;20140;-83
2022/05/06 05:30:06;;;;;;;4.35;3.05;;;;;;;;;;4962716;28;20035;-83
2022/05/06 05:32:33;;;;;;;3.60;2.80;;;;;;;;;;4946867;28;20415;-82
2022/05/06 05:35:03;;;;;;;4.07;2.85;;;;;;;;;;4961786;28;20447;-83
2022/05/06 05:37:31;;;;;;;3.30;2.70;;;;;;;;;;4947318;28;20031;-83
2022/05/06 05:40:01;;;;;;;4.20;2.80;;;;;;;;;;4962964;28;20059;-83
2022/05/06 05:42:29;;;;;;;3.88;2.80;;;;;;;;;;4962458;28;20117;-83
2022/05/06 05:50:29;;;;;;;6.35;3.40;;;;;;;;;;4962962;28;20039;-83
2022/05/06 05:52:58;;;;;;;3.45;2.90;;;;;;;;;;4947430;28;20045;-82
2022/05/06 05:55:23;;;;;;;6.13;3.20;;;;;;;;;;4962562;28;20061;-82
2022/05/06 05:57:49;;;;;;;3.92;3.15;;;;;;;;;;4962591;28;20469;-83
2022/05/06 06:00:16;;;;;;;4.38;2.85;;;;;;;;;;4962295;28;20054;-81
2022/05/06 06:02:46;;;;;;;5.03;3.35;;;;;;;;;;4962620;28;20117;-83
2022/05/06 06:05:14;;;;;;;5.80;3.67;;;;;;;;;;4961874;28;20035;-83
2022/05/06 06:07:42;;;;;;;4.75;3.13;;;;;;;;;;4947444;28;20035;-82
2022/05/06 06:10:09;;;;;;;5.07;3.20;;;;;;;;;;4962356;28;20027;-82
2022/05/06 06:12:34;;;;;;;4.30;3.65;;;;;;;;;;4981130;28;20399;-82
2022/05/06 06:15:00;;;;;;;4.88;3.20;;;;;;;;;;4979106;28;20031;-83
2022/05/06 06:17:27;;;;;;;4.55;3.80;;;;;;;;;;4963790;28;20049;-82
2022/05/06 06:19:53;;;;;;;6.82;3.55;;;;;;;;;;4979198;28;20035;-80
2022/05/06 06:22:18;;;;;;;6.70;3.80;;;;;;;;;;4978641;28;20105;-81
2022/05/06 06:24:52;;;;;;;4.57;3.67;;;;;;;;;;4962801;28;20077;-82
2022/05/06 06:27:18;;;;;;;4.43;3.50;;;;;;;;;;4962856;28;20034;-83
2022/05/06 06:29:45;;;;;;;5.10;3.67;;;;;;;;;;4963197;28;20503;-82
2022/05/06 06:32:12;;;;;;;4.85;3.55;;;;;;;;;;4960954;28;20046;-81
2022/05/06 06:34:38;;;;;;;6.72;3.88;;;;;;;;;;4975891;28;20035;-82
2022/05/06 06:37:04;;;;;;;6.18;3.75;;;;;;;;;;4959446;28;20427;-83
2022/05/06 06:39:33;;;;;;;5.47;4.00;;;;;;;;;;4945043;28;20059;-82
2022/05/06 06:41:59;;;;;;;5.30;3.70;;;;;;;;;;4962221;28;20057;-82
2022/05/06 06:44:36;;;;;;;4.47;3.80;;;;;;;;;;4978161;28;20037;-82
2022/05/06 06:47:37;;;;;;;7.47;4.00;;;;;;;;;;4939147;29;20043;-82
2022/05/06 06:50:25;;;;;;;4.30;3.90;;;;;;;;;;4977795;28;20078;-82
2022/05/06 06:53:10;;;;;;;5.07;4.43;;;;;;;;;;4950315;28;20030;-81
2022/05/06 06:55:36;;;;;;;5.25;4.20;;;;;;;;;;4979254;28;20026;-81
2022/05/06 06:58:01;;;;;;;4.80;4.18;;;;;;;;;;4980501;28;20066;-82
2022/05/06 07:00:27;;;;;;;7.13;4.30;;;;;;;;;;4977082;28;20686;-80
2022/05/06 07:02:55;;;;;;;5.75;4.50;;;;;;;;;;4977534;28;20065;-81
2022/05/06 07:05:21;;;;;;;6.65;4.32;;;;;;;;;;4978479;28;20062;-81
2022/05/06 07:13:17;;;;;;;5.53;4.18;;;;;;;;;;4961555;28;20063;-81
2022/05/06 07:15:42;;;;;;;6.55;4.30;;;;;;;;;;4973386;28;20086;-81
2022/05/06 07:18:08;;;;;;;5.22;4.35;;;;;;;;;;4979097;28;20178;-82
2022/05/06 07:20:33;;;;;;;5.15;4.28;;;;;;;;;;4977761;28;20019;-81
2022/05/06 07:22:59;;;;;;;7.05;4.75;;;;;;;;;;4978004;28;20034;-81
2022/05/06 07:25:24;;;;;;;6.03;5.00;;;;;;;;;;4957932;28;20491;-81
2022/05/06 07:27:50;;;;;;;8.20;6.03;;;;;;;;;;4977821;28;20093;-82
2022/05/06 07:30:15;;;;;;;7.32;4.95;;;;;;;;;;4943160;28;20038;-82
2022/05/06 07:32:41;;;;;;;6.38;4.50;;;;;;;;;;4977641;28;20054;-78
2022/05/06 07:35:07;;;;;;;5.80;4.90;;;;;;;;;;4978047;28;20461;-82
2022/05/06 07:37:33;;;;;;;5.85;4.60;;;;;;;;;;4961511;28;20488;-80
2022/05/06 07:40:05;;;;;;;6.40;4.40;;;;;;;;;;4961204;28;20057;-82
2022/05/06 07:42:33;;;;;;;7.07;5.00;;;;;;;;;;4978640;28;20083;-82
2022/05/06 07:44:59;;;;;;;7.10;5.60;;;;;;;;;;4976708;28;20031;-81
2022/05/06 07:47:24;;;;;;;6.72;5.40;;;;;;;;;;4960652;28;20583;-80
2022/05/06 07:49:50;;;;;;;5.68;5.05;;;;;;;;;;4961039;28;20054;-81
2022/05/06 07:52:15;;;;;;;8.30;5.57;;;;;;;;;;4976809;28;20090;-81
2022/05/06 07:54:40;;;;;;;8.00;6.00;;;;;;;;;;4960861;28;20041;-81
2022/05/06 07:57:06;;;;;;;7.13;5.40;;;;;;;;;;4976854;28;20053;-82
2022/05/06 07:59:31;;;;;;;7.47;5.72;;;;;;;;;;4978866;28;20134;-82
2022/05/06 08:04:42;;;;;;;6.78;5.00;;;;;;;;;;4976882;28;20042;-81
2022/05/06 08:07:08;;;;;;;8.02;5.22;;;;;;;;;;4978159;28;20045;-81
2022/05/06 08:09:34;;;;;;;8.07;5.38;;;;;;;;;;4980422;28;20035;-81
2022/05/06 08:11:59;;;;;;;6.18;4.97;;;;;;;;;;4980837;28;20455;-80
2022/05/06 08:14:25;;;;;;;6.22;5.13;;;;;;;;;;4981380;28;20484;-81
2022/05/06 08:16:50;;;;;;;7.50;4.82;;;;;;;;;;4982095;28;20080;-80
2022/05/06 08:19:16;;;;;;;10.93;5.47;;;;;;;;;;4981403;28;20484;-81
2022/05/06 08:21:42;;;;;;;6.80;5.25;;;;;;;;;;4980934;28;20042;-80
2022/05/06 08:24:12;;;;;;;7.10;5.20;;;;;;;;;;4980731;28;20045;-80
2022/05/06 08:26:37;;;;;;;7.13;5.32;;;;;;;;;;4980104;28;20053;-79
2022/05/06 08:29:03;;;;;;;8.52;5.95;;;;;;;;;;4964396;28;20035;-82
2022/05/06 08:31:31;;;;;;;6.40;5.10;;;;;;;;;;4980549;28;20551;-81
2022/05/06 08:33:57;;;;;;;6.50;5.40;;;;;;;;;;4979944;28;20047;-81
2022/05/06 08:36:23;;;;;;;8.23;5.80;;;;;;;;;;4980266;28;20039;-81
2022/05/06 08:38:49;;;;;;;6.78;5.40;;;;;;;;;;4978578;28;20035;-82
2022/05/06 08:41:15;;;;;;;7.78;5.70;;;;;;;;;;4980920;28;20066;-80
2022/05/06 08:43:40;;;;;;;8.20;5.80;;;;;;;;;;4981568;28;20050;-83
2022/05/06 08:50:50;;;;;;;9.25;6.90;;;;;;;;;;4978979;28;20518;-80
2022/05/06 08:51:44;;;;;;;7.78;6.15;;;;;;;;;;4966734;28;20586;-80
2022/05/06 08:54:11;;;;;;;9.02;6.43;;;;;;;;;;4978472;28;20057;-81
2022/05/06 08:56:36;;;;;;;8.48;6.07;;;;;;;;;;4962645;28;20042;-81
2022/05/06 08:59:01;;;;;;;9.07;6.78;;;;;;;;;;4977134;28;20177;-80
2022/05/06 09:01:27;;;;;;;11.48;6.72;;;;;;;;;;4979353;28;20074;-81
2022/05/06 09:03:53;;;;;;;8.55;6.75;;;;;;;;;;4964533;28;20038;-82
2022/05/06 09:06:18;;;;;;;12.63;8.48;;;;;;;;;;4979542;28;20054;-82
2022/05/06 09:08:44;;;;;;;14.48;9.30;;;;;;;;;;4981153;28;20458;-81
2022/05/06 09:11:10;;;;;;;12.15;9.25;;;;;;;;;;4981354;28;20042;-82
2022/05/06 09:13:58;;;;;;;12.75;9.35;;;;;;;;;;4948790;28;20039;-81
2022/05/06 09:16:46;;;;;;;11.90;8.55;;;;;;;;;;4981435;28;20065;-81
2022/05/06 09:19:26;;;;;;;13.35;9.00;;;;;;;;;;4980448;28;20613;-82
2022/05/06 09:21:58;;;;;;;14.10;9.75;;;;;;;;;;4981286;28;20062;-82
2022/05/06 09:24:24;;;;;;;14.60;9.13;;;;;;;;;;4979375;28;20046;-81
2022/05/06 09:27:05;;;;;;;13.55;8.65;;;;;;;;;;4981431;28;20022;-81
2022/05/06 09:29:33;;;;;;;12.95;9.80;;;;;;;;;;4981474;28;20031;-82
2022/05/06 09:32:14;;;;;;;13.07;8.52;;;;;;;;;;4980900;28;20030;-82
2022/05/06 09:34:40;;;;;;;11.18;8.98;;;;;;;;;;4981267;28;20557;-82
2022/05/06 09:37:06;;;;;;;12.95;9.25;;;;;;;;;;4980926;28;20022;-82
2022/05/06 09:39:31;;;;;;;12.25;9.00;;;;;;;;;;4980552;28;20057;-82
2022/05/06 09:42:01;;;;;;;12.95;9.07;;;;;;;;;;4964081;28;20077;-82
2022/05/06 09:44:27;;;;;;;13.00;9.30;;;;;;;;;;4975504;28;20030;-82
2022/05/06 09:47:07;;;;;;;13.52;9.55;;;;;;;;;;4964382;28;20189;-81
2022/05/06 09:49:42;;;;;;;15.38;9.82;;;;;;;;;;4960428;28;20051;-82
2022/05/06 09:52:14;;;;;;;14.32;10.48;;;;;;;;;;4980176;28;20047;-82
2022/05/06 09:54:41;;;;;;;15.38;10.45;;;;;;;;;;4963661;28;20389;-81
2022/05/06 09:57:07;;;;;;;13.88;10.50;;;;;;;;;;4947712;28;20089;-82
2022/05/06 09:59:32;;;;;;;10.30;8.45;;;;;;;;;;4960659;28;20043;-81
2022/05/06 10:01:58;;;;;;;15.85;9.10;;;;;;;;;;4980813;28;20035;-82
2022/05/06 10:04:23;;;;;;;12.95;8.95;;;;;;;;;;4978346;28;20057;-81
2022/05/06 10:06:49;;;;;;;14.48;11.15;;;;;;;;;;4978105;28;20077;-80
2022/05/06 10:09:20;;;;;;;18.55;12.68;;;;;;;;;;4962484;28;20038;-82
2022/05/06 10:11:45;;;;;;;13.10;10.07;;;;;;;;;;4960962;28;20081;-82
2022/05/06 10:14:13;;;;;;;16.42;11.40;;;;;;;;;;4977959;28;20027;-81
2022/05/06 10:16:39;;;;;;;16.42;12.20;;;;;;;;;;4962933;28;20093;-82
2022/05/06 10:19:23;;;;;;;17.02;11.15;;;;;;;;;;4962038;28;20042;-82
2022/05/06 10:21:49;;;;;;;;;;;;;;;;;;4932870;28;20034;-82
2022/05/06 10:24:17;;;;;;;14.75;10.70;;;;;;;;;;4977393;28;20399;-82
2022/05/06 10:26:45;;;;;;;15.45;10.73;;;;;;;;;;4946856;28;20126;-82
2022/05/06 10:32:26;;;;;;;16.02;11.52;;;;;;;;;;4976128;28;20051;-83
2022/05/06 10:34:58;;;;;;;15.15;11.20;;;;;;;;;;4946783;28;20049;-81
2022/05/06 10:37:23;;;;;;;16.20;11.65;;;;;;;;;;4962128;28;20043;-82
2022/05/06 10:39:49;;;;;;;17.65;11.57;;;;;;;;;;4946670;28;20515;-81
2022/05/06 10:42:16;;;;;;;15.23;11.38;;;;;;;;;;4944699;28;20035;-81
2022/05/06 10:44:44;;;;;;;15.23;11.27;;;;;;;;;;4970574;23;20031;-83
2022/05/06 10:47:13;;;;;;;16.90;11.43;;;;;;;;;;5001032;28;20475;-84
2022/05/06 10:49:38;;;;;;;14.05;11.18;;;;;;;;;;5018722;28;20033;-86
2022/05/06 10:52:24;;;;;;;14.95;11.02;;;;;;;;;;5000860;28;20045;-84
2022/05/06 10:55:00;;;;;;;15.30;12.02;;;;;;;;;;5019252;28;20033;-86
2022/05/06 10:57:27;;;;;;;16.88;10.82;;;;;;;;;;4971075;28;20026;-86
2022/05/06 11:00:02;;;;;;;15.93;11.48;;;;;;;;;;4991151;28;20026;-84
2022/05/06 11:02:34;;;;;;;15.77;12.18;;;;;;;;;;4982660;28;20069;-83
2022/05/06 11:05:01;;;;;;;15.13;12.13;;;;;;;;;;4996612;28;20038;-83
2022/05/06 11:07:27;;;;;;;16.75;11.13;;;;;;;;;;4980197;28;20034;-84
2022/05/06 11:09:53;;;;;;;18.83;13.48;;;;;;;;;;4997708;28;20054;-83
2022/05/06 11:12:35;;;;;;;16.42;12.90;;;;;;;;;;4980122;28;20034;-85
2022/05/06 11:15:03;;;;;;;16.27;12.73;;;;;;;;;;4979752;28;20115;-84
2022/05/06 11:17:28;;;;;;;16.98;12.43;;;;;;;;;;4979952;28;20088;-84
2022/05/06 11:19:54;;;;;;;17.08;12.68;;;;;;;;;;4979372;28;20033;-83
2022/05/06 11:22:20;;;;;;;18.55;12.68;;;;;;;;;;4962883;28;20504;-84
2022/05/06 11:24:46;;;;;;;17.02;13.75;;;;;;;;;;4987230;28;20034;-83
2022/05/06 11:27:16;;;;;;;17.90;13.10;;;;;;;;;;4981073;28;20379;-83
2022/05/06 11:29:55;;;;;;;16.23;12.05;;;;;;;;;;4998422;28;20042;-83
2022/05/06 11:32:20;;;;;;;16.15;12.13;;;;;;;;;;4982672;28;20037;-83
2022/05/06 11:35:03;;;;;;;15.55;11.98;;;;;;;;;;4996748;28;20500;-84
2022/05/06 11:37:32;;;;;;;15.98;12.02;;;;;;;;;;4966317;28;20033;-84
2022/05/06 11:42:42;;;;;;;17.85;11.68;;;;;;;;;;4985591;28;20470;-84
2022/05/06 11:47:52;;;;;;;16.13;11.82;;;;;;;;;;4986425;28;20065;-84
2022/05/06 11:50:18;;;;;;;14.45;11.40;;;;;;;;;;4984366;28;20038;-83
2022/05/06 11:52:44;;;;;;;15.05;11.05;;;;;;;;;;4984772;28;20029;-84
2022/05/06 11:55:10;;;;;;;14.15;11.18;;;;;;;;;;4983948;28;20048;-83
2022/05/06 11:57:35;;;;;;;13.85;11.15;;;;;;;;;;4992054;28;20029;-84
2022/05/06 12:00:05;;;;;;;15.65;10.70;;;;;;;;;;4968302;28;20029;-84
2022/05/06 12:02:44;;;;;;;14.00;10.40;;;;;;;;;;5002267;28;20041;-84
2022/05/06 12:05:13;;;;;;;14.23;11.38;;;;;;;;;;4984127;28;20042;-83
2022/05/06 12:07:42;;;;;;;13.07;10.82;;;;;;;;;;5000377;28;20049;-83
2022/05/06 12:10:09;;;;;;;14.32;11.07;;;;;;;;;;4982962;28;20034;-83
2022/05/06 12:12:51;;;;;;;14.95;12.23;;;;;;;;;;4982759;28;20049;-84
2022/05/06 12:15:17;;;;;;;14.00;11.30;;;;;;;;;;4982552;28;20061;-83
2022/05/06 12:17:42;;;;;;;17.27;11.82;;;;;;;;;;4966165;28;20081;-84
2022/05/06 12:20:37;;;;;;;14.98;11.63;;;;;;;;;;4998548;28;20061;-84
2022/05/06 12:23:06;;;;;;;15.00;11.60;;;;;;;;;;4998664;28;20029;-83
2022/05/06 12:25:35;;;;;;;15.43;11.60;;;;;;;;;;4981991;28;20115;-84
2022/05/06 12:28:19;;;;;;;14.40;11.65;;;;;;;;;;4982606;28;20469;-83
2022/05/06 12:30:44;;;;;;;;;;;;;;;;;;4998359;28;20042;-83
2022/05/06 12:33:12;;;;;;;16.55;12.27;;;;;;;;;;5008005;28;19928;-85
2022/05/06 12:35:56;;;;;;;16.10;13.50;;;;;;;;;;4999140;28;20034;-84
2022/05/06 12:38:29;;;;;;;14.55;12.88;;;;;;;;;;5016900;28;20089;-85
2022/05/06 12:40:55;;;;;;;18.45;13.38;;;;;;;;;;4984224;28;20038;-83
2022/05/06 12:43:26;;;;;;;15.82;12.27;;;;;;;;;;4967121;28;20072;-83
2022/05/06 12:45:56;;;;;;;18.33;12.40;;;;;;;;;;4998826;28;20057;-84
2022/05/06 12:51:06;;;;;;;20.05;14.23;;;;;;;;;;5018889;28;20038;-85
2022/05/06 12:53:34;;;;;;;19.23;14.70;;;;;;;;;;4986649;28;20116;-85
2022/05/06 12:56:01;;;;;;;20.33;14.88;;;;;;;;;;5021484;28;20122;-85
2022/05/06 12:58:29;;;;;;;19.05;15.27;;;;;;;;;;5000147;28;20054;-85
2022/05/06 13:00:58;;;;;;;21.98;15.98;;;;;;;;;;4983940;28;20065;-84
2022/05/06 13:03:24;;;;;;;18.73;15.27;;;;;;;;;;4984420;28;20041;-86
2022/05/06 13:05:50;;;;;;;18.85;15.90;;;;;;;;;;4987311;28;20124;-85
2022/05/06 13:08:15;;;;;;;20.35;16.85;;;;;;;;;;4996711;28;20064;-85
2022/05/06 13:10:41;;;;;;;19.75;16.40;;;;;;;;;;5005414;28;20033;-87
2022/05/06 13:13:06;;;;;;;22.30;16.92;;;;;;;;;;4987709;28;20041;-87
2022/05/06 13:15:32;;;;;;;23.40;17.13;;;;;;;;;;5000883;28;20038;-87
2022/05/06 13:17:57;;;;;;;21.10;16.58;;;;;;;;;;4984453;28;20034;-88
2022/05/06 13:20:23;;;;;;;22.17;17.00;;;;;;;;;;5001555;28;20085;-87
2022/05/06 13:22:48;;;;;;;21.42;16.95;;;;;;;;;;4969040;28;20033;-87
2022/05/06 13:25:14;;;;;;;21.98;17.48;;;;;;;;;;5017535;28;20076;-85
2022/05/06 13:27:40;;;;;;;25.58;17.98;;;;;;;;;;4985072;28;20065;-84
2022/05/06 13:30:06;;;;;;;24.05;17.92;;;;;;;;;;5001129;28;20057;-83
2022/05/06 13:32:31;;;;;;;24.25;18.65;;;;;;;;;;4983784;28;20033;-85
2022/05/06 13:34:57;;;;;;;21.88;17.17;;;;;;;;;;4999399;28;20064;-86
2022/05/06 13:37:22;;;;;;;24.42;19.45;;;;;;;;;;5017703;28;20077;-84
2022/05/06 13:39:47;;;;;;;22.50;17.88;;;;;;;;;;4968004;28;20066;-85
2022/05/06 13:42:13;;;;;;;22.60;17.35;;;;;;;;;;5000433;28;20454;-84
2022/05/06 13:44:38;;;;;;;22.30;17.08;;;;;;;;;;4998785;28;20034;-87
2022/05/06 13:47:04;;;;;;;22.27;17.52;;;;;;;;;;5000626;28;20048;-87
2022/05/06 13:49:29;;;;;;;22.98;17.33;;;;;;;;;;4985244;28;20061;-87
2022/05/06 13:51:55;;;;;;;22.95;17.27;;;;;;;;;;5003615;28;20142;-86
2022/05/06 13:54:20;;;;;;;31.27;22.02;;;;;;;;;;5000076;28;20096;-86
2022/05/06 13:59:30;;;;;;;30.33;19.83;;;;;;;;;;5018133;28;20033;-85
2022/05/06 14:01:55;;;;;;;31.23;21.50;;;;;;;;;;4983554;28;20030;-86
2022/05/06 14:04:21;;;;;;;26.70;18.88;;;;;;;;;;4999283;28;20437;-86
2022/05/06 14:06:46;;;;;;;26.52;18.70;;;;;;;;;;4999301;28;20064;-83
2022/05/06 14:09:12;;;;;;;21.15;16.10;;;;;;;;;;4999905;28;20486;-83
2022/05/06 14:11:37;;;;;;;22.38;16.55;;;;;;;;;;4982992;28;20518;-85
2022/05/06 14:14:03;;;;;;;21.08;17.05;;;;;;;;;;5017430;28;20030;-84
2022/05/06 14:16:29;;;;;;;20.75;17.02;;;;;;;;;;4983091;28;20034;-84
2022/05/06 14:18:56;;;;;;;20.85;16.95;;;;;;;;;;4982643;28;20454;-83
2022/05/06 14:21:23;;;;;;;20.73;16.00;;;;;;;;;;4983632;28;20025;-84
2022/05/06 14:23:49;;;;;;;20.35;16.20;;;;;;;;;;4999060;28;20038;-85
2022/05/06 14:26:14;;;;;;;18.95;15.95;;;;;;;;;;4998592;28;20109;-85
2022/05/06 14:28:39;;;;;;;19.52;15.88;;;;;;;;;;4999320;28;20037;-87
2022/05/06 14:31:05;;;;;;;23.55;18.02;;;;;;;;;;4982456;28;20113;-85
2022/05/06 14:33:30;;;;;;;21.60;17.13;;;;;;;;;;5016307;28;20398;-86
2022/05/06 14:35:56;;;;;;;22.75;16.13;;;;;;;;;;4998562;28;20395;-84
2022/05/06 14:38:21;;;;;;;21.95;16.73;;;;;;;;;;5016626;28;20060;-86
2022/05/06 14:40:47;;;;;;;19.73;16.33;;;;;;;;;;4967118;28;20386;-86
2022/05/06 14:43:13;;;;;;;20.20;16.67;;;;;;;;;;4967307;28;20495;-85
2022/05/06 14:45:39;;;;;;;22.00;16.70;;;;;;;;;;4983181;28;20490;-85
2022/05/06 14:48:05;;;;;;;20.88;15.57;;;;;;;;;;5020505;28;20093;-85
2022/05/06 14:50:30;;;;;;;23.90;18.05;;;;;;;;;;4999480;28;20065;-86
2022/05/06 14:52:56;;;;;;;23.98;18.88;;;;;;;;;;5015978;28;20056;-84
2022/05/06 14:55:22;;;;;;;23.40;16.77;;;;;;;;;;4981771;28;20061;-84
2022/05/06 14:57:47;;;;;;;22.00;15.88;;;;;;;;;;5016756;28;20430;-83
2022/05/06 15:00:13;;;;;;;19.50;13.63;;;;;;;;;;4999373;28;20512;-87
2022/05/06 15:02:39;;;;;;;15.38;10.98;;;;;;;;;;4968386;28;20068;-87
2022/05/06 15:05:05;;;;;;;6.57;5.30;;;;;;;;;;4998907;28;20074;-85
2022/05/06 15:07:30;;;;;;;6.60;4.38;;;;;;;;;;5002709;28;20393;-83
2022/05/06 15:09:56;;;;;;;6.38;4.10;;;;;;;;;;5003087;28;20033;-85
2022/05/06 15:12:23;;;;;;;7.43;4.43;;;;;;;;;;5000954;28;20533;-85
2022/05/06 15:14:49;;;;;;;6.97;4.18;;;;;;;;;;5001594;28;20030;-88
2022/05/06 15:17:16;;;;;;;5.40;4.20;;;;;;;;;;4985735;28;20040;-86
2022/05/06 15:19:45;;;;;;;7.60;4.93;;;;;;;;;;4986962;28;20048;-86